createdAt,value
2022-10-11T00:06:47.379Z,100
2022-10-11T00:16:47.914Z,100
2022-10-11T00:26:48.973Z,100
2022-10-11T00:36:49.559Z,100
2022-10-11T00:46:51.780Z,100
2022-10-11T00:56:49.928Z,100
2022-10-11T01:06:50.408Z,100
2022-10-11T01:16:50.582Z,100
2022-10-11T01:26:51.308Z,100
2022-10-11T01:46:52.614Z,100
2022-10-11T01:56:53.511Z,100
2022-10-11T02:06:54.351Z,100
2022-10-11T02:16:55.293Z,100
2022-10-11T02:26:55.984Z,100
2022-10-11T02:46:57.395Z,100
2022-10-11T02:56:58.018Z,100
2022-10-11T03:06:58.095Z,100
2022-10-11T03:26:59.240Z,100
2022-10-11T03:37:00.168Z,100
2022-10-11T04:17:03.039Z,100
2022-10-11T04:37:03.935Z,100
2022-10-11T05:07:05.178Z,100
2022-10-11T05:27:05.703Z,100
2022-10-11T05:37:06.452Z,100
2022-10-11T05:57:08.083Z,100
2022-10-11T06:07:08.198Z,100
2022-10-11T06:17:09.185Z,100
2022-10-11T06:37:10.088Z,100
2022-10-11T06:47:10.156Z,100
2022-10-11T06:57:11.026Z,100
2022-10-11T07:07:12.098Z,100
2022-10-11T07:17:12.633Z,100
2022-10-11T07:27:13.269Z,100
2022-10-11T07:37:13.953Z,100
2022-10-11T07:47:14.573Z,100
2022-10-11T07:57:15.332Z,100
2022-10-11T08:07:15.747Z,99
2022-10-11T08:17:15.868Z,98
2022-10-11T08:57:18.430Z,92
2022-10-11T09:17:19.898Z,89
2022-10-11T09:27:29.056Z,87
2022-10-11T09:37:20.957Z,87
2022-10-11T09:57:21.630Z,87
2022-10-11T10:07:22.606Z,86
2022-10-11T10:17:23.261Z,86
2022-10-11T10:27:23.529Z,85
2022-10-11T10:37:23.894Z,84
2022-10-11T10:47:24.863Z,85
2022-10-11T10:57:25.050Z,83
2022-10-11T11:07:25.842Z,83
2022-10-11T11:27:27.323Z,85
2022-10-11T11:37:27.966Z,84
2022-10-11T11:47:28.225Z,81
2022-10-11T11:57:28.955Z,81
2022-10-11T12:17:29.720Z,82
2022-10-11T12:27:30.768Z,81
2022-10-11T12:37:31.320Z,83
2022-10-11T12:47:31.525Z,83
2022-10-11T12:57:31.871Z,83
2022-10-11T13:07:32.154Z,83
2022-10-11T13:17:37.391Z,83
2022-10-11T13:27:33.242Z,82
2022-10-11T13:37:33.641Z,81
2022-10-11T13:47:33.716Z,79
2022-10-11T13:47:55.650Z,79
2022-10-11T13:57:39.977Z,77
2022-10-11T14:07:40.834Z,77
2022-10-11T14:17:41.364Z,78
2022-10-11T14:27:41.495Z,73
2022-10-11T14:37:42.147Z,77
2022-10-11T14:57:42.814Z,78
2022-10-11T15:07:42.869Z,79
2022-10-11T15:17:43.601Z,79
2022-10-11T15:27:43.879Z,79
2022-10-11T15:37:44.296Z,79
2022-10-11T15:47:44.540Z,80
2022-10-11T15:57:44.838Z,80
2022-10-11T16:17:45.376Z,84
2022-10-11T16:27:46.363Z,85
2022-10-11T16:37:46.845Z,86
2022-10-11T16:47:47.192Z,86
2022-10-11T16:57:47.834Z,86
2022-10-11T17:07:48.258Z,86
2022-10-11T17:17:48.543Z,85
2022-10-11T17:27:49.374Z,86
2022-10-11T17:37:49.399Z,86
2022-10-11T17:47:49.953Z,87
2022-10-11T17:57:50.040Z,87
2022-10-11T18:07:50.143Z,88
2022-10-11T18:17:50.968Z,88
2022-10-11T18:27:51.677Z,89
2022-10-11T18:37:52.509Z,87
2022-10-11T18:47:53.104Z,88
2022-10-11T18:57:53.816Z,89
2022-10-11T19:07:54.075Z,88
2022-10-11T19:17:54.399Z,88
2022-10-11T19:37:55.263Z,89
2022-10-11T19:47:56.293Z,90
2022-10-11T19:57:56.748Z,92
2022-10-11T20:07:57.526Z,92
2022-10-11T20:17:58.378Z,92
2022-10-11T20:37:58.948Z,92
2022-10-11T20:47:59.389Z,93
2022-10-11T20:57:59.970Z,94
2022-10-11T21:08:00.848Z,94
2022-10-11T21:18:01.511Z,95
2022-10-11T21:38:03.105Z,96
2022-10-11T21:48:03.815Z,97
2022-10-11T21:58:04.399Z,97
2022-10-11T22:08:04.637Z,98
2022-10-11T22:18:05.245Z,98
2022-10-11T22:28:05.352Z,99
2022-10-11T22:38:06.416Z,100
2022-10-11T22:48:07.395Z,100
2022-10-11T22:58:08.215Z,100
2022-10-11T23:08:08.468Z,100
2022-10-11T23:18:09.499Z,100
2022-10-11T23:28:09.938Z,100
2022-10-11T23:38:10.352Z,100
2022-10-11T23:48:10.608Z,100
